sensor_id;sensor_type;location;lat;lon;timestamp;temperature;humidity
51863;DHT22;37900;52.996;6.278;2023-01-01T00:01:21;16.30;93.10
51863;DHT22;37900;52.996;6.278;2023-01-01T00:03:52;16.30;93.10
51863;DHT22;37900;52.996;6.278;2023-01-01T00:06:18;16.30;93.10
51863;DHT22;37900;52.996;6.278;2023-01-01T00:08:44;16.30;93.10
51863;DHT22;37900;52.996;6.278;2023-01-01T00:11:10;16.30;93.10
51863;DHT22;37900;52.996;6.278;2023-01-01T00:13:37;16.30;93.10
51863;DHT22;37900;52.996;6.278;2023-01-01T00:18:30;16.30;93.10
51863;DHT22;37900;52.996;6.278;2023-01-01T00:21:13;16.30;93.10
51863;DHT22;37900;52.996;6.278;2023-01-01T00:23:39;16.30;93.10
51863;DHT22;37900;52.996;6.278;2023-01-01T00:26:16;16.30;93.10
51863;DHT22;37900;52.996;6.278;2023-01-01T00:28:43;16.30;93.10
51863;DHT22;37900;52.996;6.278;2023-01-01T00:31:15;16.30;93.10
51863;DHT22;37900;52.996;6.278;2023-01-01T00:33:44;16.30;93.10
51863;DHT22;37900;52.996;6.278;2023-01-01T00:36:12;16.30;93.10
51863;DHT22;37900;52.996;6.278;2023-01-01T00:38:38;16.30;93.10
51863;DHT22;37900;52.996;6.278;2023-01-01T00:41:04;16.30;93.10
51863;DHT22;37900;52.996;6.278;2023-01-01T00:43:30;16.30;93.10
51863;DHT22;37900;52.996;6.278;2023-01-01T00:45:56;16.40;93.10
51863;DHT22;37900;52.996;6.278;2023-01-01T00:48:22;16.30;93.10
51863;DHT22;37900;52.996;6.278;2023-01-01T00:50:50;16.30;93.00
51863;DHT22;37900;52.996;6.278;2023-01-01T00:53:17;16.30;93.10
51863;DHT22;37900;52.996;6.278;2023-01-01T00:55:43;16.30;93.00
51863;DHT22;37900;52.996;6.278;2023-01-01T00:58:09;16.30;93.00
51863;DHT22;37900;52.996;6.278;2023-01-01T01:00:35;16.30;93.10
51863;DHT22;37900;52.996;6.278;2023-01-01T01:03:03;16.30;93.00
51863;DHT22;37900;52.996;6.278;2023-01-01T01:05:31;16.30;93.10
51863;DHT22;37900;52.996;6.278;2023-01-01T01:07:57;16.30;93.00
51863;DHT22;37900;52.996;6.278;2023-01-01T01:10:23;16.30;93.10
51863;DHT22;37900;52.996;6.278;2023-01-01T01:12:51;16.30;93.20
51863;DHT22;37900;52.996;6.278;2023-01-01T01:15:17;16.30;93.40
51863;DHT22;37900;52.996;6.278;2023-01-01T01:17:43;16.30;93.50
51863;DHT22;37900;52.996;6.278;2023-01-01T01:20:09;16.30;93.60
51863;DHT22;37900;52.996;6.278;2023-01-01T01:22:35;16.30;93.80
51863;DHT22;37900;52.996;6.278;2023-01-01T01:25:01;16.40;93.90
51863;DHT22;37900;52.996;6.278;2023-01-01T01:27:26;16.40;94.00
51863;DHT22;37900;52.996;6.278;2023-01-01T01:29:52;16.40;94.20
51863;DHT22;37900;52.996;6.278;2023-01-01T01:32:19;16.40;94.30
51863;DHT22;37900;52.996;6.278;2023-01-01T01:34:44;16.40;94.30
51863;DHT22;37900;52.996;6.278;2023-01-01T01:37:11;16.40;94.30
51863;DHT22;37900;52.996;6.278;2023-01-01T01:39:37;16.40;94.30
51863;DHT22;37900;52.996;6.278;2023-01-01T01:42:04;16.40;94.40
51863;DHT22;37900;52.996;6.278;2023-01-01T01:45:05;16.40;94.40
51863;DHT22;37900;52.996;6.278;2023-01-01T01:47:52;16.40;94.40
51863;DHT22;37900;52.996;6.278;2023-01-01T01:50:24;16.40;94.40
51863;DHT22;37900;52.996;6.278;2023-01-01T01:53:04;16.40;94.40
51863;DHT22;37900;52.996;6.278;2023-01-01T01:55:34;16.40;94.40
51863;DHT22;37900;52.996;6.278;2023-01-01T01:58:02;16.40;94.30
51863;DHT22;37900;52.996;6.278;2023-01-01T02:00:29;16.40;94.40
51863;DHT22;37900;52.996;6.278;2023-01-01T02:03:24;16.40;94.40
51863;DHT22;37900;52.996;6.278;2023-01-01T02:05:51;16.40;94.30
51863;DHT22;37900;52.996;6.278;2023-01-01T02:08:18;16.40;94.40
51863;DHT22;37900;52.996;6.278;2023-01-01T02:10:44;16.40;94.30
51863;DHT22;37900;52.996;6.278;2023-01-01T02:13:10;16.40;94.30
51863;DHT22;37900;52.996;6.278;2023-01-01T02:18:13;16.40;94.30
51863;DHT22;37900;52.996;6.278;2023-01-01T02:20:59;16.30;94.30
51863;DHT22;37900;52.996;6.278;2023-01-01T02:31:25;16.40;94.20
51863;DHT22;37900;52.996;6.278;2023-01-01T02:33:54;16.40;94.20
51863;DHT22;37900;52.996;6.278;2023-01-01T02:36:24;16.30;94.10
51863;DHT22;37900;52.996;6.278;2023-01-01T02:38:53;16.30;94.10
51863;DHT22;37900;52.996;6.278;2023-01-01T02:41:39;16.30;94.10
51863;DHT22;37900;52.996;6.278;2023-01-01T02:44:06;16.30;94.10
51863;DHT22;37900;52.996;6.278;2023-01-01T02:46:33;16.30;94.10
51863;DHT22;37900;52.996;6.278;2023-01-01T02:48:59;16.30;94.10
51863;DHT22;37900;52.996;6.278;2023-01-01T03:02:24;16.30;94.00
51863;DHT22;37900;52.996;6.278;2023-01-01T03:21:03;16.30;93.90
51863;DHT22;37900;52.996;6.278;2023-01-01T03:23:41;16.30;93.90
51863;DHT22;37900;52.996;6.278;2023-01-01T03:26:09;16.30;93.80
51863;DHT22;37900;52.996;6.278;2023-01-01T03:28:45;16.30;93.80
51863;DHT22;37900;52.996;6.278;2023-01-01T03:31:17;16.30;93.80
51863;DHT22;37900;52.996;6.278;2023-01-01T03:33:47;16.30;93.80
51863;DHT22;37900;52.996;6.278;2023-01-01T03:36:23;16.30;93.80
51863;DHT22;37900;52.996;6.278;2023-01-01T03:38:55;16.30;93.80
51863;DHT22;37900;52.996;6.278;2023-01-01T03:41:37;16.30;93.80
51863;DHT22;37900;52.996;6.278;2023-01-01T03:46:39;16.30;93.80
51863;DHT22;37900;52.996;6.278;2023-01-01T03:49:07;16.30;93.80
51863;DHT22;37900;52.996;6.278;2023-01-01T03:57:34;16.30;93.70
51863;DHT22;37900;52.996;6.278;2023-01-01T04:05:25;16.00;93.60
51863;DHT22;37900;52.996;6.278;2023-01-01T04:07:52;16.30;93.90
51863;DHT22;37900;52.996;6.278;2023-01-01T04:10:18;16.30;93.70
51863;DHT22;37900;52.996;6.278;2023-01-01T04:12:53;16.30;93.70
51863;DHT22;37900;52.996;6.278;2023-01-01T04:15:22;16.30;93.60
51863;DHT22;37900;52.996;6.278;2023-01-01T04:17:49;16.30;93.60
51863;DHT22;37900;52.996;6.278;2023-01-01T04:20:16;16.30;93.60
51863;DHT22;37900;52.996;6.278;2023-01-01T04:22:42;16.30;93.90
51863;DHT22;37900;52.996;6.278;2023-01-01T04:25:09;16.30;93.60
51863;DHT22;37900;52.996;6.278;2023-01-01T04:27:36;16.30;93.60
51863;DHT22;37900;52.996;6.278;2023-01-01T04:30:03;16.30;93.60
51863;DHT22;37900;52.996;6.278;2023-01-01T04:32:29;16.30;93.60
51863;DHT22;37900;52.996;6.278;2023-01-01T04:34:55;16.20;93.60
51863;DHT22;37900;52.996;6.278;2023-01-01T04:37:21;16.30;93.60
51863;DHT22;37900;52.996;6.278;2023-01-01T04:39:46;16.30;93.60
51863;DHT22;37900;52.996;6.278;2023-01-01T04:42:12;16.20;93.50
51863;DHT22;37900;52.996;6.278;2023-01-01T04:44:38;16.30;93.50
51863;DHT22;37900;52.996;6.278;2023-01-01T04:47:04;16.30;93.50
51863;DHT22;37900;52.996;6.278;2023-01-01T04:49:30;16.30;93.50
51863;DHT22;37900;52.996;6.278;2023-01-01T04:51:56;16.30;93.50
51863;DHT22;37900;52.996;6.278;2023-01-01T04:54:21;16.30;93.50
51863;DHT22;37900;52.996;6.278;2023-01-01T04:56:47;16.30;93.70
51863;DHT22;37900;52.996;6.278;2023-01-01T04:59:13;16.30;93.50
51863;DHT22;37900;52.996;6.278;2023-01-01T05:01:38;16.30;93.50
51863;DHT22;37900;52.996;6.278;2023-01-01T05:04:04;16.30;93.50
51863;DHT22;37900;52.996;6.278;2023-01-01T05:06:30;16.30;93.50
51863;DHT22;37900;52.996;6.278;2023-01-01T05:08:56;16.30;93.40
51863;DHT22;37900;52.996;6.278;2023-01-01T05:11:27;16.30;93.40
51863;DHT22;37900;52.996;6.278;2023-01-01T05:13:56;16.30;93.40
51863;DHT22;37900;52.996;6.278;2023-01-01T05:16:24;16.30;93.40
51863;DHT22;37900;52.996;6.278;2023-01-01T05:18:50;16.30;93.40
51863;DHT22;37900;52.996;6.278;2023-01-01T05:21:20;16.30;93.40
51863;DHT22;37900;52.996;6.278;2023-01-01T05:23:46;16.30;93.40
51863;DHT22;37900;52.996;6.278;2023-01-01T05:26:15;16.30;93.40
51863;DHT22;37900;52.996;6.278;2023-01-01T05:28:41;16.20;93.40
51863;DHT22;37900;52.996;6.278;2023-01-01T05:31:11;16.30;93.40
51863;DHT22;37900;52.996;6.278;2023-01-01T05:33:37;16.30;93.40
51863;DHT22;37900;52.996;6.278;2023-01-01T05:36:05;16.20;93.30
51863;DHT22;37900;52.996;6.278;2023-01-01T05:38:32;16.30;93.40
51863;DHT22;37900;52.996;6.278;2023-01-01T05:40:57;16.30;93.40
51863;DHT22;37900;52.996;6.278;2023-01-01T05:43:23;16.20;93.30
51863;DHT22;37900;52.996;6.278;2023-01-01T05:46:01;16.20;93.30
51863;DHT22;37900;52.996;6.278;2023-01-01T05:48:27;16.20;93.30
51863;DHT22;37900;52.996;6.278;2023-01-01T05:50:53;16.20;93.30
51863;DHT22;37900;52.996;6.278;2023-01-01T05:53:19;16.20;93.30
51863;DHT22;37900;52.996;6.278;2023-01-01T05:55:51;16.20;93.30
51863;DHT22;37900;52.996;6.278;2023-01-01T05:58:17;16.20;93.30
51863;DHT22;37900;52.996;6.278;2023-01-01T06:00:42;16.20;93.30
51863;DHT22;37900;52.996;6.278;2023-01-01T06:03:08;16.20;93.30
51863;DHT22;37900;52.996;6.278;2023-01-01T06:05:34;16.20;93.30
51863;DHT22;37900;52.996;6.278;2023-01-01T06:08:00;16.20;93.20
51863;DHT22;37900;52.996;6.278;2023-01-01T06:10:26;16.20;93.30
51863;DHT22;37900;52.996;6.278;2023-01-01T06:12:54;16.20;93.20
51863;DHT22;37900;52.996;6.278;2023-01-01T06:15:26;15.90;93.20
51863;DHT22;37900;52.996;6.278;2023-01-01T06:17:52;16.20;93.30
51863;DHT22;37900;52.996;6.278;2023-01-01T06:20:18;16.20;93.30
51863;DHT22;37900;52.996;6.278;2023-01-01T06:22:44;16.20;93.20
51863;DHT22;37900;52.996;6.278;2023-01-01T06:25:10;16.20;93.20
51863;DHT22;37900;52.996;6.278;2023-01-01T06:27:36;16.20;93.20
51863;DHT22;37900;52.996;6.278;2023-01-01T06:30:03;16.20;93.20
51863;DHT22;37900;52.996;6.278;2023-01-01T06:32:30;16.20;93.20
51863;DHT22;37900;52.996;6.278;2023-01-01T06:34:55;16.20;93.20
51863;DHT22;37900;52.996;6.278;2023-01-01T06:37:21;16.20;93.20
51863;DHT22;37900;52.996;6.278;2023-01-01T06:39:47;16.20;93.20
51863;DHT22;37900;52.996;6.278;2023-01-01T06:42:12;16.20;93.20
51863;DHT22;37900;52.996;6.278;2023-01-01T06:44:38;16.20;93.20
51863;DHT22;37900;52.996;6.278;2023-01-01T06:47:04;16.20;93.20
51863;DHT22;37900;52.996;6.278;2023-01-01T06:49:30;16.20;93.20
51863;DHT22;37900;52.996;6.278;2023-01-01T06:51:55;16.20;93.20
51863;DHT22;37900;52.996;6.278;2023-01-01T06:54:21;16.20;93.20
51863;DHT22;37900;52.996;6.278;2023-01-01T06:56:47;16.20;93.20
51863;DHT22;37900;52.996;6.278;2023-01-01T06:59:15;16.20;93.20
51863;DHT22;37900;52.996;6.278;2023-01-01T07:01:41;16.20;93.20
51863;DHT22;37900;52.996;6.278;2023-01-01T07:04:10;16.20;93.20
51863;DHT22;37900;52.996;6.278;2023-01-01T07:06:36;16.20;93.20
51863;DHT22;37900;52.996;6.278;2023-01-01T07:09:03;16.20;93.20
51863;DHT22;37900;52.996;6.278;2023-01-01T07:11:33;16.20;93.20
51863;DHT22;37900;52.996;6.278;2023-01-01T07:13:58;16.20;93.20
51863;DHT22;37900;52.996;6.278;2023-01-01T07:16:25;16.20;93.20
51863;DHT22;37900;52.996;6.278;2023-01-01T07:18:51;16.20;93.20
51863;DHT22;37900;52.996;6.278;2023-01-01T07:21:31;16.20;93.20
51863;DHT22;37900;52.996;6.278;2023-01-01T07:23:59;16.20;93.20
51863;DHT22;37900;52.996;6.278;2023-01-01T07:26:26;16.20;93.20
51863;DHT22;37900;52.996;6.278;2023-01-01T07:28:52;16.20;93.20
51863;DHT22;37900;52.996;6.278;2023-01-01T07:31:18;16.20;93.10
51863;DHT22;37900;52.996;6.278;2023-01-01T07:33:44;16.10;93.10
51863;DHT22;37900;52.996;6.278;2023-01-01T07:36:10;16.20;93.20
51863;DHT22;37900;52.996;6.278;2023-01-01T07:38:35;16.20;93.10
51863;DHT22;37900;52.996;6.278;2023-01-01T07:41:01;16.20;93.40
51863;DHT22;37900;52.996;6.278;2023-01-01T07:43:27;16.20;93.10
51863;DHT22;37900;52.996;6.278;2023-01-01T07:45:52;16.20;93.40
51863;DHT22;37900;52.996;6.278;2023-01-01T07:48:18;16.20;93.10
51863;DHT22;37900;52.996;6.278;2023-01-01T07:50:44;16.20;93.10
51863;DHT22;37900;52.996;6.278;2023-01-01T07:53:09;16.20;93.10
51863;DHT22;37900;52.996;6.278;2023-01-01T07:55:35;16.20;93.10
51863;DHT22;37900;52.996;6.278;2023-01-01T07:58:01;16.10;93.10
51863;DHT22;37900;52.996;6.278;2023-01-01T08:00:28;16.20;93.10
51863;DHT22;37900;52.996;6.278;2023-01-01T08:02:54;16.20;93.10
51863;DHT22;37900;52.996;6.278;2023-01-01T08:05:20;16.20;93.10
51863;DHT22;37900;52.996;6.278;2023-01-01T08:07:49;16.20;93.10
51863;DHT22;37900;52.996;6.278;2023-01-01T08:10:17;16.20;93.10
51863;DHT22;37900;52.996;6.278;2023-01-01T08:12:44;16.20;93.10
51863;DHT22;37900;52.996;6.278;2023-01-01T08:15:10;16.20;93.10
51863;DHT22;37900;52.996;6.278;2023-01-01T08:17:36;16.20;93.10
51863;DHT22;37900;52.996;6.278;2023-01-01T08:20:03;16.20;93.00
51863;DHT22;37900;52.996;6.278;2023-01-01T08:22:28;16.20;93.00
51863;DHT22;37900;52.996;6.278;2023-01-01T08:24:54;16.20;93.00
51863;DHT22;37900;52.996;6.278;2023-01-01T08:27:20;16.20;93.00
51863;DHT22;37900;52.996;6.278;2023-01-01T08:29:45;16.20;93.00
51863;DHT22;37900;52.996;6.278;2023-01-01T08:32:12;16.20;93.00
51863;DHT22;37900;52.996;6.278;2023-01-01T08:34:38;16.20;93.00
51863;DHT22;37900;52.996;6.278;2023-01-01T08:37:04;16.20;93.00
51863;DHT22;37900;52.996;6.278;2023-01-01T08:39:30;16.20;93.00
51863;DHT22;37900;52.996;6.278;2023-01-01T08:41:56;16.20;93.00
51863;DHT22;37900;52.996;6.278;2023-01-01T08:44:22;16.20;93.00
51863;DHT22;37900;52.996;6.278;2023-01-01T08:46:48;16.10;92.90
51863;DHT22;37900;52.996;6.278;2023-01-01T08:49:13;16.20;92.90
51863;DHT22;37900;52.996;6.278;2023-01-01T08:51:39;16.10;92.90
51863;DHT22;37900;52.996;6.278;2023-01-01T08:54:05;16.10;92.90
51863;DHT22;37900;52.996;6.278;2023-01-01T08:56:31;16.20;92.90
51863;DHT22;37900;52.996;6.278;2023-01-01T08:58:56;16.20;92.90
51863;DHT22;37900;52.996;6.278;2023-01-01T09:01:22;16.10;92.90
51863;DHT22;37900;52.996;6.278;2023-01-01T09:03:50;16.20;92.90
51863;DHT22;37900;52.996;6.278;2023-01-01T09:06:16;16.20;92.90
51863;DHT22;37900;52.996;6.278;2023-01-01T09:08:42;16.20;92.90
51863;DHT22;37900;52.996;6.278;2023-01-01T09:11:24;16.20;92.90
51863;DHT22;37900;52.996;6.278;2023-01-01T09:13:51;16.20;92.90
51863;DHT22;37900;52.996;6.278;2023-01-01T09:16:17;16.20;92.90
51863;DHT22;37900;52.996;6.278;2023-01-01T09:18:43;16.30;92.90
51863;DHT22;37900;52.996;6.278;2023-01-01T09:21:09;16.10;92.90
51863;DHT22;37900;52.996;6.278;2023-01-01T09:23:34;16.10;92.80
51863;DHT22;37900;52.996;6.278;2023-01-01T09:26:05;16.10;92.80
51863;DHT22;37900;52.996;6.278;2023-01-01T09:28:31;16.10;92.80
51863;DHT22;37900;52.996;6.278;2023-01-01T09:30:56;16.10;92.80
51863;DHT22;37900;52.996;6.278;2023-01-01T09:33:22;16.10;92.80
51863;DHT22;37900;52.996;6.278;2023-01-01T09:35:48;16.10;92.80
51863;DHT22;37900;52.996;6.278;2023-01-01T09:38:14;16.10;92.80
51863;DHT22;37900;52.996;6.278;2023-01-01T09:40:54;16.20;92.90
51863;DHT22;37900;52.996;6.278;2023-01-01T09:43:45;16.10;93.00
51863;DHT22;37900;52.996;6.278;2023-01-01T09:46:15;16.20;93.10
51863;DHT22;37900;52.996;6.278;2023-01-01T09:48:51;16.20;93.20
51863;DHT22;37900;52.996;6.278;2023-01-01T09:51:21;16.20;93.30
51863;DHT22;37900;52.996;6.278;2023-01-01T09:53:58;16.20;93.30
51863;DHT22;37900;52.996;6.278;2023-01-01T09:56:28;16.20;93.50
51863;DHT22;37900;52.996;6.278;2023-01-01T09:58:56;16.20;93.60
51863;DHT22;37900;52.996;6.278;2023-01-01T10:01:55;16.20;93.60
51863;DHT22;37900;52.996;6.278;2023-01-01T10:15:22;16.20;93.70
51863;DHT22;37900;52.996;6.278;2023-01-01T10:17:53;16.20;93.70
51863;DHT22;37900;52.996;6.278;2023-01-01T10:25:49;16.20;93.70
51863;DHT22;37900;52.996;6.278;2023-01-01T10:31:15;16.20;93.70
51863;DHT22;37900;52.996;6.278;2023-01-01T10:33:42;16.20;93.70
51863;DHT22;37900;52.996;6.278;2023-01-01T10:36:13;16.20;93.70
51863;DHT22;37900;52.996;6.278;2023-01-01T10:38:40;16.20;93.70
51863;DHT22;37900;52.996;6.278;2023-01-01T10:41:08;16.20;93.80
51863;DHT22;37900;52.996;6.278;2023-01-01T10:43:34;16.20;93.80
51863;DHT22;37900;52.996;6.278;2023-01-01T10:46:01;16.20;93.70
51863;DHT22;37900;52.996;6.278;2023-01-01T10:48:29;16.20;93.80
51863;DHT22;37900;52.996;6.278;2023-01-01T10:51:00;16.20;93.80
51863;DHT22;37900;52.996;6.278;2023-01-01T10:53:35;16.20;93.80
51863;DHT22;37900;52.996;6.278;2023-01-01T10:58:49;16.20;93.80
51863;DHT22;37900;52.996;6.278;2023-01-01T11:01:28;16.20;93.80
51863;DHT22;37900;52.996;6.278;2023-01-01T11:06:42;16.20;93.80
51863;DHT22;37900;52.996;6.278;2023-01-01T11:09:28;16.20;93.80
51863;DHT22;37900;52.996;6.278;2023-01-01T11:17:10;16.20;93.80
51863;DHT22;37900;52.996;6.278;2023-01-01T11:19:38;16.20;93.80
51863;DHT22;37900;52.996;6.278;2023-01-01T11:22:04;16.20;93.80
51863;DHT22;37900;52.996;6.278;2023-01-01T11:24:32;16.20;93.80
51863;DHT22;37900;52.996;6.278;2023-01-01T11:27:23;16.20;93.80
51863;DHT22;37900;52.996;6.278;2023-01-01T11:29:50;16.20;93.90
51863;DHT22;37900;52.996;6.278;2023-01-01T11:32:29;16.20;93.90
51863;DHT22;37900;52.996;6.278;2023-01-01T11:35:02;16.20;93.90
51863;DHT22;37900;52.996;6.278;2023-01-01T11:37:31;16.20;93.90
51863;DHT22;37900;52.996;6.278;2023-01-01T11:39:59;16.20;94.00
51863;DHT22;37900;52.996;6.278;2023-01-01T11:42:28;16.20;94.00
51863;DHT22;37900;52.996;6.278;2023-01-01T11:47:42;16.30;94.10
51863;DHT22;37900;52.996;6.278;2023-01-01T11:50:28;16.30;94.20
51863;DHT22;37900;52.996;6.278;2023-01-01T11:52:56;16.30;94.20
51863;DHT22;37900;52.996;6.278;2023-01-01T11:55:44;16.40;94.20
51863;DHT22;37900;52.996;6.278;2023-01-01T12:01:02;16.40;94.20
51863;DHT22;37900;52.996;6.278;2023-01-01T12:06:22;16.40;94.30
51863;DHT22;37900;52.996;6.278;2023-01-01T12:08:58;16.40;94.40
51863;DHT22;37900;52.996;6.278;2023-01-01T12:11:40;16.40;94.60
51863;DHT22;37900;52.996;6.278;2023-01-01T12:16:58;16.40;94.70
51863;DHT22;37900;52.996;6.278;2023-01-01T12:19:47;16.40;94.70
51863;DHT22;37900;52.996;6.278;2023-01-01T12:22:16;16.40;94.70
51863;DHT22;37900;52.996;6.278;2023-01-01T12:24:43;16.40;94.70
51863;DHT22;37900;52.996;6.278;2023-01-01T12:30:21;16.40;94.70
51863;DHT22;37900;52.996;6.278;2023-01-01T12:33:11;16.40;94.70
51863;DHT22;37900;52.996;6.278;2023-01-01T12:36:02;16.40;94.70
51863;DHT22;37900;52.996;6.278;2023-01-01T12:44:24;16.40;94.90
51863;DHT22;37900;52.996;6.278;2023-01-01T12:47:08;16.40;94.90
51863;DHT22;37900;52.996;6.278;2023-01-01T12:57:56;16.50;94.90
51863;DHT22;37900;52.996;6.278;2023-01-01T13:00:23;16.50;94.90
51863;DHT22;37900;52.996;6.278;2023-01-01T13:02:59;16.50;94.90
51863;DHT22;37900;52.996;6.278;2023-01-01T13:05:37;16.40;94.90
51863;DHT22;37900;52.996;6.278;2023-01-01T13:08:05;16.50;94.90
51863;DHT22;37900;52.996;6.278;2023-01-01T13:10:37;16.50;94.90
51863;DHT22;37900;52.996;6.278;2023-01-01T13:13:04;16.50;94.80
51863;DHT22;37900;52.996;6.278;2023-01-01T13:18:07;16.40;94.80
51863;DHT22;37900;52.996;6.278;2023-01-01T13:20:42;16.50;94.80
51863;DHT22;37900;52.996;6.278;2023-01-01T13:24:02;16.40;94.80
51863;DHT22;37900;52.996;6.278;2023-01-01T13:39:54;16.40;94.70
51863;DHT22;37900;52.996;6.278;2023-01-01T14:01:37;16.50;94.90
51863;DHT22;37900;52.996;6.278;2023-01-01T14:04:11;16.50;94.80
51863;DHT22;37900;52.996;6.278;2023-01-01T14:06:40;16.50;94.80
51863;DHT22;37900;52.996;6.278;2023-01-01T14:09:13;16.50;94.80
51863;DHT22;37900;52.996;6.278;2023-01-01T14:11:40;16.50;94.70
51863;DHT22;37900;52.996;6.278;2023-01-01T14:14:21;16.50;94.80
51863;DHT22;37900;52.996;6.278;2023-01-01T14:16:54;16.50;94.70
51863;DHT22;37900;52.996;6.278;2023-01-01T14:19:22;16.50;94.70
51863;DHT22;37900;52.996;6.278;2023-01-01T14:21:49;16.50;94.60
51863;DHT22;37900;52.996;6.278;2023-01-01T14:24:17;16.50;94.60
51863;DHT22;37900;52.996;6.278;2023-01-01T14:26:43;16.50;94.60
51863;DHT22;37900;52.996;6.278;2023-01-01T14:29:35;16.50;94.60
51863;DHT22;37900;52.996;6.278;2023-01-01T14:32:17;16.50;94.50
51863;DHT22;37900;52.996;6.278;2023-01-01T14:34:45;16.40;94.50
51863;DHT22;37900;52.996;6.278;2023-01-01T14:37:37;16.40;94.50
51863;DHT22;37900;52.996;6.278;2023-01-01T14:40:15;16.40;94.40
51863;DHT22;37900;52.996;6.278;2023-01-01T14:42:43;16.40;94.40
51863;DHT22;37900;52.996;6.278;2023-01-01T14:45:19;16.40;94.40
51863;DHT22;37900;52.996;6.278;2023-01-01T14:47:49;16.40;94.40
51863;DHT22;37900;52.996;6.278;2023-01-01T14:50:28;16.40;94.40
51863;DHT22;37900;52.996;6.278;2023-01-01T14:55:31;16.40;94.30
51863;DHT22;37900;52.996;6.278;2023-01-01T14:57:59;16.40;94.40
51863;DHT22;37900;52.996;6.278;2023-01-01T15:00:29;16.40;94.30
51863;DHT22;37900;52.996;6.278;2023-01-01T15:03:04;16.40;94.30
51863;DHT22;37900;52.996;6.278;2023-01-01T15:05:33;16.40;94.30
51863;DHT22;37900;52.996;6.278;2023-01-01T15:08:00;16.40;94.30
51863;DHT22;37900;52.996;6.278;2023-01-01T15:10:28;16.40;94.30
51863;DHT22;37900;52.996;6.278;2023-01-01T15:12:55;16.40;94.30
51863;DHT22;37900;52.996;6.278;2023-01-01T15:15:42;16.50;94.30
51863;DHT22;37900;52.996;6.278;2023-01-01T15:18:36;16.50;94.30
51863;DHT22;37900;52.996;6.278;2023-01-01T15:21:35;16.50;94.30
51863;DHT22;37900;52.996;6.278;2023-01-01T15:24:10;16.50;94.20
51863;DHT22;37900;52.996;6.278;2023-01-01T15:26:48;16.50;94.20
51863;DHT22;37900;52.996;6.278;2023-01-01T15:29:23;16.50;94.20
51863;DHT22;37900;52.996;6.278;2023-01-01T15:31:56;16.50;94.20
51863;DHT22;37900;52.996;6.278;2023-01-01T15:34:31;16.50;94.20
51863;DHT22;37900;52.996;6.278;2023-01-01T15:37:35;16.50;94.20
51863;DHT22;37900;52.996;6.278;2023-01-01T15:42:41;16.50;94.30
51863;DHT22;37900;52.996;6.278;2023-01-01T15:45:22;16.50;94.50
51863;DHT22;37900;52.996;6.278;2023-01-01T15:47:53;16.50;94.40
51863;DHT22;37900;52.996;6.278;2023-01-01T15:50:23;16.60;94.50
51863;DHT22;37900;52.996;6.278;2023-01-01T15:52:57;16.60;94.50
51863;DHT22;37900;52.996;6.278;2023-01-01T15:55:29;16.60;94.50
51863;DHT22;37900;52.996;6.278;2023-01-01T15:57:56;16.70;94.60
51863;DHT22;37900;52.996;6.278;2023-01-01T16:00:28;16.70;94.60
51863;DHT22;37900;52.996;6.278;2023-01-01T16:03:01;16.70;94.60
51863;DHT22;37900;52.996;6.278;2023-01-01T16:05:28;16.70;94.60
51863;DHT22;37900;52.996;6.278;2023-01-01T16:07:59;16.70;94.60
51863;DHT22;37900;52.996;6.278;2023-01-01T16:10:25;16.80;94.60
51863;DHT22;37900;52.996;6.278;2023-01-01T16:12:51;16.80;94.60
51863;DHT22;37900;52.996;6.278;2023-01-01T16:15:17;16.80;94.60
51863;DHT22;37900;52.996;6.278;2023-01-01T16:17:43;16.80;94.60
51863;DHT22;37900;52.996;6.278;2023-01-01T16:20:16;16.80;94.60
51863;DHT22;37900;52.996;6.278;2023-01-01T16:22:43;16.80;94.70
51863;DHT22;37900;52.996;6.278;2023-01-01T16:25:14;16.80;95.00
51863;DHT22;37900;52.996;6.278;2023-01-01T16:27:41;16.80;95.10
51863;DHT22;37900;52.996;6.278;2023-01-01T16:30:07;16.80;95.20
51863;DHT22;37900;52.996;6.278;2023-01-01T16:32:33;16.80;95.40
51863;DHT22;37900;52.996;6.278;2023-01-01T16:34:58;17.00;95.60
51863;DHT22;37900;52.996;6.278;2023-01-01T16:37:24;16.80;95.80
51863;DHT22;37900;52.996;6.278;2023-01-01T16:39:50;16.80;95.90
51863;DHT22;37900;52.996;6.278;2023-01-01T16:42:16;16.90;96.20
51863;DHT22;37900;52.996;6.278;2023-01-01T16:44:42;16.90;96.30
51863;DHT22;37900;52.996;6.278;2023-01-01T16:47:08;16.90;96.40
51863;DHT22;37900;52.996;6.278;2023-01-01T16:49:34;16.90;96.40
51863;DHT22;37900;52.996;6.278;2023-01-01T16:52:00;17.00;96.50
51863;DHT22;37900;52.996;6.278;2023-01-01T16:54:26;17.00;96.50
51863;DHT22;37900;52.996;6.278;2023-01-01T16:56:52;17.00;96.60
51863;DHT22;37900;52.996;6.278;2023-01-01T16:59:17;17.00;96.70
51863;DHT22;37900;52.996;6.278;2023-01-01T17:01:43;17.00;96.70
51863;DHT22;37900;52.996;6.278;2023-01-01T17:04:10;17.00;96.80
51863;DHT22;37900;52.996;6.278;2023-01-01T17:06:37;17.00;96.80
51863;DHT22;37900;52.996;6.278;2023-01-01T17:09:02;16.90;97.20
51863;DHT22;37900;52.996;6.278;2023-01-01T17:11:28;16.90;96.90
51863;DHT22;37900;52.996;6.278;2023-01-01T17:13:54;16.90;96.80
51863;DHT22;37900;52.996;6.278;2023-01-01T17:16:22;16.90;96.90
51863;DHT22;37900;52.996;6.278;2023-01-01T17:18:49;16.90;96.90
51863;DHT22;37900;52.996;6.278;2023-01-01T17:21:16;16.90;96.90
51863;DHT22;37900;52.996;6.278;2023-01-01T17:23:41;16.90;97.00
51863;DHT22;37900;52.996;6.278;2023-01-01T17:26:16;16.90;96.90
51863;DHT22;37900;52.996;6.278;2023-01-01T17:28:43;17.00;96.90
51863;DHT22;37900;52.996;6.278;2023-01-01T17:31:11;17.00;96.90
51863;DHT22;37900;52.996;6.278;2023-01-01T17:33:38;17.00;96.80
51863;DHT22;37900;52.996;6.278;2023-01-01T17:36:04;17.00;96.80
51863;DHT22;37900;52.996;6.278;2023-01-01T17:38:30;17.00;96.70
51863;DHT22;37900;52.996;6.278;2023-01-01T17:41:08;17.00;96.60
51863;DHT22;37900;52.996;6.278;2023-01-01T17:43:35;17.00;96.60
51863;DHT22;37900;52.996;6.278;2023-01-01T17:46:05;17.00;96.50
51863;DHT22;37900;52.996;6.278;2023-01-01T17:48:31;17.00;96.50
51863;DHT22;37900;52.996;6.278;2023-01-01T17:50:57;16.90;96.40
51863;DHT22;37900;52.996;6.278;2023-01-01T17:53:23;16.90;96.30
51863;DHT22;37900;52.996;6.278;2023-01-01T17:55:49;16.90;96.30
51863;DHT22;37900;52.996;6.278;2023-01-01T17:58:15;16.90;96.30
51863;DHT22;37900;52.996;6.278;2023-01-01T18:00:40;16.90;96.30
51863;DHT22;37900;52.996;6.278;2023-01-01T18:03:13;16.90;96.30
51863;DHT22;37900;52.996;6.278;2023-01-01T18:05:39;17.00;96.40
51863;DHT22;37900;52.996;6.278;2023-01-01T18:08:05;17.00;96.40
51863;DHT22;37900;52.996;6.278;2023-01-01T18:10:31;17.00;96.40
51863;DHT22;37900;52.996;6.278;2023-01-01T18:12:57;17.00;96.30
51863;DHT22;37900;52.996;6.278;2023-01-01T18:15:23;17.00;96.30
51863;DHT22;37900;52.996;6.278;2023-01-01T18:17:49;16.70;96.10